createdAt,value
2022-10-25T00:01:50.699Z,13.09
2022-10-25T00:07:29.059Z,13.04
2022-10-25T00:13:05.982Z,13.01
2022-10-25T00:18:42.783Z,13.04
2022-10-25T00:24:15.488Z,13.11
2022-10-25T00:27:04.116Z,13.02
2022-10-25T00:29:53.924Z,13.03
2022-10-25T00:32:42.602Z,13.05
2022-10-25T00:38:33.302Z,13.09
2022-10-25T00:50:35.387Z,13.06
2022-10-25T00:53:26.808Z,12.92
2022-10-25T00:56:17.834Z,12.98
2022-10-25T01:01:58.294Z,13.04
2022-10-25T01:04:47.075Z,13.00
2022-10-25T01:10:41.331Z,13.04
2022-10-25T01:13:29.636Z,12.91
2022-10-25T01:21:54.345Z,12.88
2022-10-25T01:25:32.263Z,12.88
2022-10-25T01:31:17.418Z,12.97
2022-10-25T01:36:58.992Z,13.01
2022-10-25T01:42:52.647Z,12.97
2022-10-25T01:48:35.011Z,12.97
2022-10-25T01:54:21.036Z,12.93
2022-10-25T02:00:31.859Z,12.98
2022-10-25T02:09:04.407Z,12.92
2022-10-25T02:11:54.399Z,12.82
2022-10-25T02:17:30.339Z,12.76
2022-10-25T02:23:08.525Z,12.61
2022-10-25T02:28:44.273Z,12.54
2022-10-25T02:34:19.727Z,12.47
2022-10-25T02:37:08.173Z,12.46
2022-10-25T02:39:57.361Z,12.48
2022-10-25T02:45:31.937Z,12.53
2022-10-25T02:48:20.269Z,12.46
2022-10-25T02:59:17.390Z,12.44
2022-10-25T03:04:57.871Z,12.34
2022-10-25T03:07:46.128Z,12.21
2022-10-25T03:13:16.074Z,12.34
2022-10-25T03:16:05.917Z,12.33
2022-10-25T03:18:54.837Z,12.09
2022-10-25T03:24:31.356Z,12.03
2022-10-25T03:30:06.688Z,12.16
2022-10-25T03:35:41.569Z,12.11
2022-10-25T03:41:18.688Z,12.09
2022-10-25T03:46:57.328Z,12.03
2022-10-25T03:55:21.813Z,12.09
2022-10-25T03:58:14.544Z,12.13
2022-10-25T04:06:36.608Z,12.16
2022-10-25T04:09:26.268Z,12.10
2022-10-25T04:15:00.212Z,12.06
2022-10-25T04:20:37.583Z,12.14
2022-10-25T04:26:18.739Z,12.03
2022-10-25T04:31:53.954Z,11.91
2022-10-25T04:34:43.542Z,11.89
2022-10-25T04:40:24.910Z,12.01
2022-10-25T04:43:14.074Z,11.97
2022-10-25T04:48:50.135Z,12.20
2022-10-25T04:54:21.794Z,12.15
2022-10-25T05:00:03.412Z,12.06
2022-10-25T05:05:39.819Z,12.02
2022-10-25T05:11:18.841Z,12.06
2022-10-25T05:14:07.068Z,11.97
2022-10-25T05:19:40.325Z,12.16
2022-10-25T05:25:08.550Z,12.19
2022-10-25T05:30:48.497Z,12.20
2022-10-25T05:36:34.876Z,12.27
2022-10-25T05:42:13.263Z,12.34
2022-10-25T05:47:49.198Z,12.47
2022-10-25T05:50:37.940Z,12.47
2022-10-25T05:53:26.545Z,12.36
2022-10-25T05:59:09.278Z,12.25
2022-10-25T06:01:58.543Z,12.20
2022-10-25T06:04:51.634Z,12.21
2022-10-25T06:07:37.391Z,12.31
2022-10-25T06:10:25.734Z,12.32
2022-10-25T06:13:16.552Z,12.28
2022-10-25T06:18:56.318Z,12.41
2022-10-25T06:24:35.591Z,12.51
2022-10-25T06:27:24.046Z,12.52
2022-10-25T06:30:13.784Z,12.59
2022-10-25T06:33:02.510Z,12.62
2022-10-25T06:35:51.903Z,12.68
2022-10-25T06:38:40.215Z,12.76
2022-10-25T06:44:16.752Z,12.91
2022-10-25T06:47:17.117Z,12.89
2022-10-25T06:52:39.952Z,13.08
2022-10-25T06:55:28.887Z,13.08
2022-10-25T07:01:04.711Z,13.19
2022-10-25T07:06:36.294Z,13.30
2022-10-25T07:12:10.102Z,13.40
2022-10-25T07:17:43.977Z,13.41
2022-10-25T07:23:23.001Z,13.43
2022-10-25T07:26:12.125Z,13.36
2022-10-25T07:34:36.694Z,13.32
2022-10-25T07:37:27.715Z,13.34
2022-10-25T07:43:02.033Z,13.74
2022-10-25T07:45:51.595Z,13.85
2022-10-25T07:54:19.934Z,14.51
2022-10-25T08:00:03.225Z,14.87
2022-10-25T08:08:28.023Z,14.86
2022-10-25T08:16:47.361Z,14.99
2022-10-25T08:19:35.207Z,15.02
2022-10-25T08:25:13.119Z,15.29
2022-10-25T08:30:46.708Z,15.26
2022-10-25T08:36:24.112Z,15.30
2022-10-25T08:42:01.696Z,15.54
2022-10-25T08:47:42.204Z,15.53
2022-10-25T08:53:23.138Z,15.29
2022-10-25T08:59:04.061Z,15.67
2022-10-25T09:04:43.390Z,16.06
2022-10-25T09:10:48.595Z,16.16
2022-10-25T09:19:17.794Z,16.38
2022-10-25T09:27:50.660Z,16.75
2022-10-25T09:33:30.432Z,16.84
2022-10-25T09:41:55.473Z,17.04
2022-10-25T09:47:44.030Z,17.20
2022-10-25T09:53:20.227Z,17.07
2022-10-25T09:58:57.077Z,17.10
2022-10-25T10:04:30.469Z,17.03
2022-10-25T10:07:22.493Z,17.01
2022-10-25T10:10:14.186Z,17.04
2022-10-25T10:15:51.529Z,17.17
2022-10-25T10:21:26.078Z,17.28
2022-10-25T10:24:21.696Z,17.25
2022-10-25T10:29:57.009Z,17.60
2022-10-25T10:35:44.319Z,17.52
2022-10-25T10:41:18.161Z,17.67
2022-10-25T10:49:43.884Z,18.06
2022-10-25T10:52:34.817Z,17.96
2022-10-25T10:58:30.142Z,18.10
2022-10-25T11:04:27.280Z,18.21
2022-10-25T11:07:23.045Z,18.36
2022-10-25T11:13:18.994Z,18.39
2022-10-25T11:22:51.381Z,18.64
2022-10-25T11:28:40.982Z,18.71
2022-10-25T11:34:25.525Z,18.66
2022-10-25T11:43:15.106Z,18.76
2022-10-25T11:49:16.763Z,18.94
2022-10-25T11:55:13.953Z,19.15
2022-10-25T12:00:59.229Z,19.32
2022-10-25T12:04:02.517Z,19.32
2022-10-25T12:06:55.984Z,19.16
2022-10-25T12:12:27.868Z,19.61
2022-10-25T12:18:08.185Z,19.71
2022-10-25T12:24:02.798Z,19.40
2022-10-25T12:29:42.829Z,19.45
2022-10-25T12:35:30.623Z,19.73
2022-10-25T12:41:16.558Z,20.12
2022-10-25T12:44:20.745Z,20.06
2022-10-25T12:50:26.868Z,19.85
2022-10-25T12:56:46.430Z,19.90
2022-10-25T13:03:23.334Z,19.82
2022-10-25T13:11:46.574Z,20.03
2022-10-25T13:17:49.170Z,19.90
2022-10-25T13:24:03.279Z,19.73
2022-10-25T13:30:28.611Z,19.99
2022-10-25T13:36:19.609Z,19.79
2022-10-25T13:42:11.789Z,20.06
2022-10-25T13:47:54.346Z,20.23
2022-10-25T13:53:39.948Z,20.24
2022-10-25T14:02:23.131Z,20.14
2022-10-25T14:10:59.969Z,20.04
2022-10-25T14:16:41.613Z,19.93
2022-10-25T14:19:37.725Z,19.87
2022-10-25T14:25:27.297Z,19.69
2022-10-25T14:31:25.161Z,19.60
2022-10-25T14:37:05.063Z,19.08
2022-10-25T14:42:49.477Z,18.77
2022-10-25T14:48:31.107Z,18.66
2022-10-25T14:51:22.760Z,18.56
2022-10-25T15:03:23.148Z,18.38
2022-10-25T15:06:13.690Z,18.26
2022-10-25T15:09:41.364Z,18.05
2022-10-25T15:12:19.901Z,17.92
2022-10-25T15:18:03.206Z,17.90
2022-10-25T15:20:56.518Z,17.73
2022-10-25T15:29:30.917Z,17.62
2022-10-25T15:32:21.019Z,17.70
2022-10-25T15:38:17.433Z,17.52
2022-10-25T15:49:28.845Z,17.21
2022-10-25T15:52:17.561Z,17.19
2022-10-25T15:58:01.833Z,17.06
2022-10-25T16:06:23.546Z,16.92
2022-10-25T16:11:58.838Z,16.59
2022-10-25T16:17:33.503Z,16.54
2022-10-25T16:23:03.056Z,16.56
2022-10-25T16:28:41.169Z,16.31
2022-10-25T16:34:18.416Z,16.18
2022-10-25T16:39:48.413Z,16.20
2022-10-25T16:45:37.497Z,16.20
2022-10-25T16:48:25.975Z,16.20
2022-10-25T16:53:59.126Z,15.84
2022-10-25T16:59:30.639Z,15.80
2022-10-25T17:02:20.541Z,15.72
2022-10-25T17:07:50.784Z,15.64
2022-10-25T17:10:46.401Z,15.56
2022-10-25T17:18:56.755Z,15.50
2022-10-25T17:24:25.872Z,15.48
2022-10-25T17:30:02.966Z,15.45
2022-10-25T17:32:51.186Z,15.34
2022-10-25T17:35:43.473Z,15.51
2022-10-25T17:44:03.638Z,15.42
2022-10-25T17:49:36.245Z,15.38
2022-10-25T17:55:18.100Z,15.48
2022-10-25T18:00:59.287Z,15.58
2022-10-25T18:06:36.128Z,15.64
2022-10-25T18:18:34.426Z,15.55
2022-10-25T18:25:00.770Z,15.65
2022-10-25T18:30:36.674Z,15.65
2022-10-25T18:36:15.471Z,15.73
2022-10-25T18:41:55.544Z,15.62
2022-10-25T18:50:19.718Z,15.49
2022-10-25T18:58:42.715Z,15.46
2022-10-25T19:01:34.384Z,15.39
2022-10-25T19:04:27.845Z,15.34
2022-10-25T19:15:32.691Z,15.22
2022-10-25T19:18:25.222Z,15.21
2022-10-25T19:24:18.075Z,15.09
2022-10-25T19:27:11.253Z,14.98
2022-10-25T19:29:59.457Z,15.11
2022-10-25T19:32:51.227Z,15.02
2022-10-25T19:35:42.227Z,15.02
2022-10-25T19:41:25.987Z,14.95
2022-10-25T19:47:09.870Z,14.96
2022-10-25T19:49:58.228Z,14.93
2022-10-25T19:52:48.918Z,14.88
2022-10-25T19:58:18.965Z,14.96
2022-10-25T20:01:12.513Z,14.93
2022-10-25T20:04:01.560Z,14.89
2022-10-25T20:09:49.178Z,15.13
2022-10-25T20:15:26.387Z,14.92
2022-10-25T20:18:24.627Z,14.87
2022-10-25T20:21:23.317Z,14.89
2022-10-25T20:24:11.881Z,14.90
2022-10-25T20:29:47.030Z,15.00
2022-10-25T20:32:35.120Z,14.97
2022-10-25T20:35:27.088Z,14.97
2022-10-25T20:41:14.183Z,15.05
2022-10-25T20:49:51.897Z,15.04
2022-10-25T20:55:30.295Z,15.06
2022-10-25T20:58:21.632Z,15.03
2022-10-25T21:03:54.086Z,15.09
2022-10-25T21:09:57.436Z,15.06
2022-10-25T21:18:16.236Z,15.00
2022-10-25T21:21:07.868Z,14.98
2022-10-25T21:26:45.605Z,14.98
2022-10-25T21:32:21.397Z,14.97
2022-10-25T21:40:45.204Z,15.02
2022-10-25T21:46:22.495Z,15.06
2022-10-25T21:52:12.485Z,15.00
2022-10-25T21:57:48.216Z,14.97
2022-10-25T22:03:24.317Z,14.96
2022-10-25T22:06:14.435Z,14.87
2022-10-25T22:09:02.791Z,14.92
2022-10-25T22:17:23.957Z,15.00
2022-10-25T22:22:57.027Z,15.00
2022-10-25T22:31:11.535Z,14.79
2022-10-25T22:36:44.809Z,14.75
2022-10-25T22:45:04.008Z,14.64
2022-10-25T22:53:37.964Z,14.71
2022-10-25T22:59:14.005Z,14.60
2022-10-25T23:04:48.173Z,14.63
2022-10-25T23:10:24.657Z,14.52
2022-10-25T23:18:49.139Z,14.49
2022-10-25T23:24:27.091Z,14.48
2022-10-25T23:30:16.615Z,14.46
2022-10-25T23:35:51.711Z,14.56
2022-10-25T23:38:40.084Z,14.53
2022-10-25T23:44:18.187Z,14.56
2022-10-25T23:50:10.657Z,14.39
2022-10-25T23:55:48.447Z,14.51
